Time;durP1;ratioP1;P1;durP2;ratioP2;P2;SDS_P1;SDS_P2;PMS_P1;PMS_P2;Temp;Humidity;BMP_temperature;BMP_pressure;BME280_temperature;BME280_humidity;BME280_pressure;Samples;Min_cycle;Max_cycle;Signal;HPM_P1;HPM_P2
2023/12/19 00:01:36;;;;;;;51.90;26.08;;;;;;;1.85;100.00;101360.78;6310672;28;20047;-71
2023/12/19 00:04:37;;;;;;;57.95;27.00;;;;;;;1.91;100.00;101354.78;6304921;28;20052;-71
2023/12/19 00:07:38;;;;;;;57.83;26.92;;;;;;;1.92;100.00;101353.94;6320445;28;20048;-75
2023/12/19 00:10:42;;;;;;;52.50;26.55;;;;;;;1.86;100.00;101356.53;6320956;28;20048;-75
2023/12/19 00:13:43;;;;;;;45.42;24.90;;;;;;;1.90;100.00;101366.78;6314212;28;20040;-75
2023/12/19 00:16:44;;;;;;;60.72;26.25;;;;;;;1.88;100.00;101359.94;6308999;28;20055;-71
2023/12/19 00:19:45;;;;;;;73.25;25.63;;;;;;;1.95;100.00;101359.91;6323340;28;20044;-74
2023/12/19 00:22:46;;;;;;;51.50;23.13;;;;;;;1.99;100.00;101365.91;6320023;28;20055;-75
2023/12/19 00:25:47;;;;;;;56.53;24.77;;;;;;;1.98;100.00;101365.03;6313704;28;20048;-71
2023/12/19 00:28:48;;;;;;;56.33;23.45;;;;;;;2.00;100.00;101371.03;6303286;28;20131;-75
2023/12/19 00:31:51;;;;;;;51.83;20.95;;;;;;;1.98;100.00;101364.19;6322826;28;20039;-75
2023/12/19 00:34:53;;;;;;;39.85;17.92;;;;;;;2.02;100.00;101368.47;6311045;28;20039;-75
2023/12/19 00:37:54;;;;;;;49.05;20.90;;;;;;;2.07;100.00;101365.88;6321202;28;20135;-71
2023/12/19 00:40:59;;;;;;;55.10;18.40;;;;;;;1.99;100.00;101383.91;6310077;28;20054;-71
2023/12/19 00:44:01;;;;;;;37.20;18.75;;;;;;;2.06;100.00;101377.00;6310383;28;20052;-71
2023/12/19 00:47:03;;;;;;;45.40;19.08;;;;;;;2.05;100.00;101380.47;6315969;28;20052;-75
2023/12/19 00:50:06;;;;;;;39.85;17.45;;;;;;;2.02;100.00;101378.75;6319301;28;20097;-75
2023/12/19 00:53:07;;;;;;;48.75;18.60;;;;;;;2.01;100.00;101377.88;6321188;28;20050;-75
2023/12/19 00:56:14;;;;;;;62.15;16.50;;;;;;;2.04;100.00;101373.59;6320619;28;20412;-75
2023/12/19 00:59:14;;;;;;;49.05;16.30;;;;;;;2.06;100.00;101379.59;6320786;28;20063;-71
2023/12/19 01:02:15;;;;;;;71.85;18.65;;;;;;;2.04;100.00;101381.31;6320125;28;20056;-74
2023/12/19 01:05:16;;;;;;;67.80;17.13;;;;;;;2.07;100.00;101360.72;6317213;28;20067;-75
2023/12/19 01:08:17;;;;;;;38.08;16.58;;;;;;;2.06;100.00;101365.03;6312383;28;20524;-75
2023/12/19 01:11:18;;;;;;;37.55;16.23;;;;;;;2.03;100.00;101359.03;6310899;28;20040;-71
2023/12/19 01:14:19;;;;;;;34.53;16.45;;;;;;;2.04;100.00;101346.16;6305895;28;20045;-71
2023/12/19 01:17:22;;;;;;;35.83;16.70;;;;;;;2.03;100.00;101343.56;6299771;28;20044;-71
2023/12/19 01:20:23;;;;;;;35.70;16.58;;;;;;;1.98;100.00;101344.44;6318706;28;20047;-75
2023/12/19 01:23:25;;;;;;;45.33;18.13;;;;;;;2.07;100.00;101346.13;6307475;28;20049;-75
2023/12/19 01:26:26;;;;;;;35.78;17.15;;;;;;;2.09;100.00;101346.13;6311646;28;20420;-75
2023/12/19 01:29:27;;;;;;;43.15;17.77;;;;;;;2.07;100.00;101337.53;6320384;28;20059;-75
2023/12/19 01:32:27;;;;;;;30.48;16.98;;;;;;;2.10;100.00;101346.13;6317204;28;20089;-75
2023/12/19 01:35:31;;;;;;;52.38;16.95;;;;;;;2.08;100.00;101355.56;6296680;28;20063;-75
2023/12/19 01:38:32;;;;;;;41.28;18.20;;;;;;;2.07;100.00;101356.41;6304655;28;20052;-75
2023/12/19 01:41:32;;;;;;;41.65;16.55;;;;;;;2.06;100.00;101353.84;6316693;28;20124;-71
2023/12/19 01:44:33;;;;;;;30.95;17.45;;;;;;;2.07;100.00;101353.84;6310369;28;20045;-71
2023/12/19 01:47:40;;;;;;;31.20;14.80;;;;;;;2.04;100.00;101350.41;6312922;28;20547;-75
2023/12/19 01:50:44;;;;;;;37.00;17.00;;;;;;;2.09;100.00;101338.38;6309289;28;20496;-72
2023/12/19 01:53:47;;;;;;;59.30;17.60;;;;;;;2.13;100.00;101324.63;6297582;28;20040;-72
2023/12/19 01:56:51;;;;;;;39.33;16.98;;;;;;;2.11;100.00;101316.91;6307723;28;20089;-75
2023/12/19 01:59:52;;;;;;;43.28;18.60;;;;;;;2.09;100.00;101312.63;6318417;28;20060;-75
2023/12/19 02:02:53;;;;;;;48.78;16.98;;;;;;;2.11;100.00;101309.19;6314653;28;20036;-75
2023/12/19 02:05:57;;;;;;;47.08;17.35;;;;;;;2.07;100.00;101299.78;6294864;28;20044;-75
2023/12/19 02:09:01;;;;;;;57.88;19.20;;;;;;;2.13;100.00;101309.19;6316776;28;20721;-75
2023/12/19 02:12:03;;;;;;;36.58;17.30;;;;;;;2.16;100.00;101316.88;6311058;28;20499;-71
2023/12/19 02:15:07;;;;;;;40.45;16.75;;;;;;;2.12;100.00;101310.91;6302137;28;20046;-71
2023/12/19 02:18:16;;;;;;;63.50;18.17;;;;;;;2.23;100.00;101308.25;6302309;28;20566;-71
2023/12/19 02:21:17;;;;;;;46.63;15.20;;;;;;;2.22;100.00;101306.53;6304442;28;20052;-71
2023/12/19 02:24:18;;;;;;;42.53;15.32;;;;;;;2.22;100.00;101304.84;6298367;28;20626;-71
2023/12/19 02:27:23;;;;;;;47.42;14.20;;;;;;;2.22;100.00;101303.97;6312642;28;20052;-71
2023/12/19 02:30:25;;;;;;;29.50;15.27;;;;;;;2.17;100.00;101298.84;6305069;28;20587;-71
2023/12/19 02:33:25;;;;;;;28.52;14.25;;;;;;;2.20;100.00;101295.38;6303540;28;20488;-71
2023/12/19 02:36:26;;;;;;;50.70;15.27;;;;;;;2.19;100.00;101291.13;6318912;28;20060;-71
2023/12/19 02:39:27;;;;;;;48.47;22.98;;;;;;;2.17;100.00;101287.69;6318468;28;20408;-71
2023/12/19 02:42:31;;;;;;;57.88;17.05;;;;;;;2.18;100.00;101291.97;6299191;28;20040;-75
2023/12/19 02:45:33;;;;;;;61.10;14.75;;;;;;;2.10;100.00;101289.47;6310587;28;20063;-71
2023/12/19 02:48:36;;;;;;;31.83;13.52;;;;;;;2.02;100.00;101288.66;6313789;28;20048;-71
2023/12/19 02:51:38;;;;;;;34.47;14.63;;;;;;;2.06;100.00;101298.06;6319696;28;20052;-72
2023/12/19 02:54:38;;;;;;;44.05;14.60;;;;;;;2.18;100.00;101299.69;6310721;28;20041;-75
2023/12/19 02:57:42;;;;;;;62.97;13.50;;;;;;;2.22;100.00;101289.38;6303640;28;20052;-71
2023/12/19 03:00:43;;;;;;;44.05;16.85;;;;;;;2.21;100.00;101290.25;6304474;28;20044;-72
2023/12/19 03:03:44;;;;;;;43.90;18.13;;;;;;;2.17;100.00;101267.09;6297404;28;20447;-71
2023/12/19 03:06:47;;;;;;;50.08;18.20;;;;;;;2.18;100.00;101271.38;6309303;28;20139;-71
2023/12/19 03:09:47;;;;;;;53.17;20.60;;;;;;;2.11;100.00;101255.13;6314804;28;20112;-71
2023/12/19 03:12:51;;;;;;;61.70;17.10;;;;;;;2.20;100.00;101260.22;6306876;28;20488;-72
2023/12/19 03:15:51;;;;;;;25.83;14.60;;;;;;;2.15;100.00;101261.09;6311762;28;20071;-72
2023/12/19 03:18:54;;;;;;;33.83;15.93;;;;;;;2.13;100.00;101255.13;6302318;28;20056;-75
2023/12/19 03:21:56;;;;;;;48.05;20.45;;;;;;;2.05;100.00;101257.72;6302383;28;20052;-75
2023/12/19 03:24:57;;;;;;;43.75;18.80;;;;;;;2.16;100.00;101263.69;6295663;28;20478;-75
2023/12/19 03:27:58;;;;;;;42.80;17.65;;;;;;;2.16;100.00;101252.50;6300757;28;20497;-74
2023/12/19 03:30:59;;;;;;;46.25;18.30;;;;;;;2.09;100.00;101250.84;6307324;28;20094;-75
2023/12/19 03:34:02;;;;;;;38.38;14.60;;;;;;;2.06;100.00;101259.44;6298768;28;20044;-74
2023/12/19 03:37:03;;;;;;;;;;;;;;;2.08;100.00;101265.44;6310094;28;20582;-71
2023/12/19 03:40:05;;;;;;;31.20;12.43;;;;;;;2.08;100.00;101262.00;6308886;28;20005;-71
2023/12/19 03:43:08;;;;;;;28.52;12.68;;;;;;;2.08;100.00;101267.16;6309639;28;20037;-71
2023/12/19 03:46:08;;;;;;;26.42;13.30;;;;;;;2.14;100.00;101269.69;6319951;28;20097;-74
2023/12/19 03:49:09;;;;;;;37.70;13.65;;;;;;;2.17;100.00;101274.81;6310812;28;20048;-75
2023/12/19 03:52:10;;;;;;;28.48;13.07;;;;;;;2.14;100.00;101264.53;6298992;28;20468;-74
2023/12/19 03:55:11;;;;;;;29.23;14.52;;;;;;;2.19;100.00;101261.06;6302773;28;20074;-74
2023/12/19 03:58:12;;;;;;;41.13;13.93;;;;;;;2.20;100.00;101262.78;6319528;28;20056;-74
2023/12/19 04:01:13;;;;;;;40.13;13.07;;;;;;;2.20;100.00;101256.75;6321372;28;20056;-74
2023/12/19 04:04:14;;;;;;;34.72;13.80;;;;;;;2.21;100.00;101261.91;6303364;28;20040;-74
2023/12/19 04:07:15;;;;;;;28.60;14.27;;;;;;;2.20;100.00;101261.91;6315213;28;20055;-74
2023/12/19 04:10:15;;;;;;;27.92;13.65;;;;;;;2.17;100.00;101269.69;6315199;28;20048;-75
2023/12/19 04:13:16;;;;;;;39.17;12.98;;;;;;;2.23;100.00;101261.91;6321909;28;20097;-74
2023/12/19 04:16:17;;;;;;;57.60;14.18;;;;;;;2.19;100.00;101271.38;6303837;28;20488;-72
2023/12/19 04:19:21;;;;;;;34.13;13.68;;;;;;;2.13;100.00;101267.97;6311650;28;20139;-71
2023/12/19 04:22:22;;;;;;;24.48;11.55;;;;;;;2.09;100.00;101261.16;6306699;28;20044;-71
2023/12/19 04:25:23;;;;;;;34.85;11.65;;;;;;;2.21;100.00;101266.22;6309612;28;20044;-71
2023/12/19 04:28:24;;;;;;;30.67;11.63;;;;;;;2.13;100.00;101267.97;6304206;28;20421;-71
2023/12/19 04:31:24;;;;;;;27.85;12.82;;;;;;;2.12;100.00;101263.69;6302256;28;20071;-71
2023/12/19 04:34:28;;;;;;;37.45;12.85;;;;;;;2.12;100.00;101263.69;6307194;28;20048;-72
2023/12/19 04:37:31;;;;;;;21.38;11.30;;;;;;;1.98;100.00;101245.78;6303302;28;20049;-71
2023/12/19 04:40:32;;;;;;;38.78;12.43;;;;;;;2.05;100.00;101233.72;6297611;28;20412;-71
2023/12/19 04:43:33;;;;;;;27.15;11.73;;;;;;;2.02;100.00;101232.03;6298297;28;20079;-74
2023/12/19 04:46:34;;;;;;;30.48;11.27;;;;;;;1.94;100.00;101244.09;6296224;28;20071;-74
2023/12/19 04:49:39;;;;;;;24.48;9.30;;;;;;;1.77;100.00;101249.31;6321635;28;20416;-74
2023/12/19 04:52:40;;;;;;;19.73;10.85;;;;;;;1.86;100.00;101258.72;6323025;28;20040;-75
2023/12/19 04:55:41;;;;;;;40.72;12.05;;;;;;;1.78;100.00;101269.06;6321007;28;20055;-74
2023/12/19 04:58:46;;;;;;;22.48;10.73;;;;;;;1.90;100.00;101275.84;6302006;28;20064;-71
2023/12/19 05:01:46;;;;;;;63.28;11.73;;;;;;;1.90;100.00;101263.00;6306859;28;20048;-73
2023/12/19 05:04:48;;;;;;;30.10;10.85;;;;;;;1.85;100.00;101270.72;6320517;28;20089;-72
2023/12/19 05:07:51;;;;;;;20.55;9.85;;;;;;;1.89;100.00;101279.28;6296002;28;20044;-72
2023/12/19 05:10:52;;;;;;;70.97;15.27;;;;;;;1.95;100.00;101276.66;6300094;28;20454;-73
2023/12/19 05:13:56;;;;;;;28.65;12.65;;;;;;;1.94;100.00;101278.41;6308204;28;20047;-76
2023/12/19 05:16:57;;;;;;;25.10;12.32;;;;;;;1.99;100.00;101278.38;6296824;28;20139;-76
2023/12/19 05:19:59;;;;;;;25.27;11.80;;;;;;;1.99;100.00;101289.50;6302005;28;20499;-73
2023/12/19 05:23:02;;;;;;;30.73;12.20;;;;;;;2.05;100.00;101285.19;6319592;28;20044;-76
2023/12/19 05:26:04;;;;;;;44.10;11.35;;;;;;;2.13;100.00;101284.28;6302310;28;20300;-76
2023/12/19 05:29:05;;;;;;;21.75;10.82;;;;;;;2.13;100.00;101273.13;6296637;28;20056;-73
2023/12/19 05:32:10;;;;;;;27.90;11.55;;;;;;;1.98;100.00;101261.22;6296540;28;20443;-75
2023/12/19 05:35:10;;;;;;;26.75;11.57;;;;;;;1.94;100.00;101244.94;6297684;28;20041;-76
2023/12/19 05:38:11;;;;;;;26.15;10.52;;;;;;;1.81;100.00;101239.00;6302036;28;20404;-76
2023/12/19 05:41:14;;;;;;;28.63;11.68;;;;;;;1.76;100.00;101251.03;6299558;28;20053;-76
2023/12/19 05:44:17;;;;;;;23.33;11.13;;;;;;;1.72;100.00;101275.06;6313808;28;20043;-76
2023/12/19 05:47:18;;;;;;;27.15;9.80;;;;;;;1.87;100.00;101270.72;6307467;28;20431;-72
2023/12/19 05:50:19;;;;;;;17.67;9.25;;;;;;;1.85;100.00;101281.00;6297799;28;20049;-72
2023/12/19 05:53:20;;;;;;;36.05;11.32;;;;;;;1.78;100.00;101269.91;6303171;28;20052;-72
2023/12/19 05:56:21;;;;;;;18.73;8.25;;;;;;;1.91;100.00;101262.09;6321227;28;20048;-72
2023/12/19 05:59:22;;;;;;;37.17;9.88;;;;;;;1.93;100.00;101242.34;6321326;28;20194;-73
2023/12/19 06:02:26;;;;;;;38.45;10.73;;;;;;;1.96;100.00;101252.66;6308130;28;20059;-72
2023/12/19 06:05:27;;;;;;;25.05;9.00;;;;;;;2.03;100.00;101263.75;6304371;28;20044;-73
2023/12/19 06:08:28;;;;;;;24.40;11.05;;;;;;;1.95;100.00;101262.06;6305482;28;20051;-73
2023/12/19 06:11:29;;;;;;;26.17;11.93;;;;;;;2.00;100.00;101265.50;6321021;28;20048;-76
2023/12/19 06:14:29;;;;;;;38.92;11.15;;;;;;;1.93;100.00;101265.53;6298799;28;20048;-76
2023/12/19 06:17:30;;;;;;;19.52;10.27;;;;;;;1.89;100.00;101267.25;6295851;28;20053;-76
2023/12/19 06:20:31;;;;;;;29.30;15.25;;;;;;;1.92;100.00;101248.38;6318524;28;20412;-72
2023/12/19 06:23:32;;;;;;;26.63;13.00;;;;;;;1.89;100.00;101251.81;6319641;28;20055;-72
2023/12/19 06:26:33;;;;;;;66.00;20.50;;;;;;;1.91;100.00;101247.50;6312486;28;20044;-73
2023/12/19 06:29:35;;;;;;;41.55;14.65;;;;;;;1.93;100.00;101240.63;6312084;28;20059;-73
2023/12/19 06:32:36;;;;;;;35.17;12.50;;;;;;;1.89;100.00;101227.81;6312382;28;20139;-73
2023/12/19 06:35:46;;;;;;;47.28;13.82;;;;;;;1.84;100.00;101209.81;6306917;28;20397;-76
2023/12/19 06:38:47;;;;;;;47.15;13.45;;;;;;;1.72;100.00;101197.88;6294187;28;20503;-73
2023/12/19 06:41:47;;;;;;;25.70;11.38;;;;;;;1.59;100.00;101201.41;6294213;28;20084;-72
2023/12/19 06:44:49;;;;;;;30.95;12.85;;;;;;;1.60;100.00;101228.81;6296096;28;20067;-77
2023/12/19 06:47:50;;;;;;;21.13;10.20;;;;;;;1.69;100.00;101248.50;6295346;28;20072;-73
2023/12/19 06:50:50;;;;;;;38.03;13.00;;;;;;;1.78;100.00;101259.59;6295572;28;20075;-73
2023/12/19 06:53:55;;;;;;;28.17;11.93;;;;;;;1.85;100.00;101265.56;6293991;28;20045;-73
2023/12/19 06:56:56;;;;;;;22.15;11.10;;;;;;;1.88;100.00;101244.97;6294291;28;20061;-73
2023/12/19 06:59:56;;;;;;;27.55;10.35;;;;;;;1.76;100.00;101238.16;6293815;28;20113;-76
2023/12/19 07:02:57;;;;;;;31.65;10.88;;;;;;;1.97;100.00;101260.34;6295072;28;20040;-73
2023/12/19 07:06:00;;;;;;;41.95;12.95;;;;;;;2.01;100.00;101259.47;6295664;28;20063;-73
2023/12/19 07:09:02;;;;;;;21.90;10.40;;;;;;;1.90;100.00;101250.97;6297399;28;20060;-72
2023/12/19 07:12:03;;;;;;;28.77;11.43;;;;;;;1.86;100.00;101244.13;6298948;28;20052;-72
2023/12/19 07:15:05;;;;;;;26.48;11.68;;;;;;;1.98;100.00;101246.63;6299933;28;20049;-73
2023/12/19 07:18:08;;;;;;;24.13;11.60;;;;;;;2.04;100.00;101252.59;6299893;28;20048;-73
2023/12/19 07:21:23;;;;;;;29.88;12.98;;;;;;;2.12;100.00;101245.66;6299507;28;20132;-72
2023/12/19 07:24:23;;;;;;;32.78;14.40;;;;;;;2.17;100.00;101255.06;6298488;28;20045;-73
2023/12/19 07:27:24;;;;;;;46.08;18.65;;;;;;;2.16;100.00;101260.22;6299516;28;20055;-72
2023/12/19 07:30:25;;;;;;;33.03;17.52;;;;;;;2.17;100.00;101249.91;6299350;28;20135;-72
2023/12/19 07:33:26;;;;;;;28.27;12.40;;;;;;;2.13;100.00;101258.53;6298280;28;20131;-76
2023/12/19 07:36:28;;;;;;;27.45;12.98;;;;;;;2.16;100.00;101255.06;6299739;28;20098;-73
2023/12/19 07:39:29;;;;;;;22.90;11.47;;;;;;;2.17;100.00;101251.66;6298252;28;20048;-73
2023/12/19 07:42:30;;;;;;;27.20;12.80;;;;;;;2.25;100.00;101242.16;6299198;28;20052;-76
2023/12/19 07:45:32;;;;;;;40.15;12.85;;;;;;;2.24;100.00;101243.00;6299561;28;20147;-76
2023/12/19 07:48:33;;;;;;;44.58;12.88;;;;;;;2.24;100.00;101245.56;6299109;28;20053;-76
2023/12/19 07:51:34;;;;;;;27.77;12.45;;;;;;;2.28;100.00;101254.97;6299115;28;20420;-73
2023/12/19 07:54:36;;;;;;;41.30;14.18;;;;;;;2.21;100.00;101245.59;6297874;28;20049;-73
2023/12/19 07:57:39;;;;;;;38.22;16.20;;;;;;;2.12;100.00;101259.41;6299036;28;20092;-73
2023/12/19 08:00:45;;;;;;;57.70;19.45;;;;;;;2.12;100.00;101251.69;6298973;28;20050;-76
2023/12/19 08:03:46;;;;;;;45.38;19.40;;;;;;;2.28;100.00;101246.41;6297740;28;20507;-76
2023/12/19 08:06:47;;;;;;;57.40;22.45;;;;;;;2.18;100.00;101232.75;6299285;28;20049;-76
2023/12/19 08:09:48;;;;;;;74.70;23.75;;;;;;;2.21;100.00;101243.88;6298948;28;20086;-76
2023/12/19 08:12:49;;;;;;;51.47;21.73;;;;;;;2.18;100.00;101235.31;6298811;28;20052;-75
2023/12/19 08:15:50;;;;;;;47.65;21.50;;;;;;;2.06;100.00;101235.41;6298567;28;20044;-75
2023/12/19 08:18:51;;;;;;;40.87;19.17;;;;;;;2.13;100.00;101247.38;6297300;28;20459;-75
2023/12/19 08:21:54;;;;;;;43.42;20.55;;;;;;;2.11;100.00;101254.25;6297227;28;20327;-75
2023/12/19 08:24:55;;;;;;;42.28;20.55;;;;;;;2.17;100.00;101264.53;6298554;28;20044;-75
2023/12/19 08:27:56;;;;;;;81.88;20.83;;;;;;;2.28;100.00;101270.44;6297053;28;20052;-73
2023/12/19 08:30:57;;;;;;;47.60;18.13;;;;;;;2.41;100.00;101268.66;6298498;28;20049;-73
2023/12/19 08:33:58;;;;;;;62.55;22.48;;;;;;;2.25;100.00;101264.47;6296856;28;20056;-73
2023/12/19 08:36:59;;;;;;;74.00;20.48;;;;;;;2.24;100.00;101245.56;6298396;28;20106;-72
2023/12/19 08:40:03;;;;;;;48.30;20.02;;;;;;;2.25;100.00;101256.75;6298109;28;20051;-73
2023/12/19 08:43:04;;;;;;;55.85;21.83;;;;;;;2.12;100.00;101263.69;6297901;28;20047;-72
2023/12/19 08:46:05;;;;;;;73.53;28.38;;;;;;;2.33;100.00;101260.13;6298107;28;20448;-73
2023/12/19 08:49:06;;;;;;;75.50;28.55;;;;;;;2.40;100.00;101257.47;6296544;28;20059;-72
2023/12/19 08:52:07;;;;;;;62.63;24.85;;;;;;;2.52;100.00;101266.81;6296711;28;20052;-72
2023/12/19 08:55:10;;;;;;;42.47;20.45;;;;;;;2.27;100.00;101263.59;6297621;28;20400;-72
2023/12/19 08:58:11;;;;;;;64.35;24.13;;;;;;;2.31;100.00;101259.28;6297384;28;20182;-72
2023/12/19 09:01:13;;;;;;;56.28;21.27;;;;;;;2.36;100.00;101248.06;6297441;28;20480;-75
2023/12/19 09:04:14;;;;;;;56.70;20.02;;;;;;;2.28;100.00;101239.53;6297469;28;20459;-76
2023/12/19 09:07:17;;;;;;;44.70;19.40;;;;;;;2.31;100.00;101241.25;6296196;28;20094;-75
2023/12/19 09:10:19;;;;;;;46.17;19.92;;;;;;;2.33;100.00;101242.09;6297174;28;20060;-75
2023/12/19 09:13:21;;;;;;;55.45;19.60;;;;;;;2.33;100.00;101236.94;6297122;28;20507;-71
2023/12/19 09:16:22;;;;;;;75.43;19.00;;;;;;;2.29;100.00;101246.41;6296034;28;20075;-76
2023/12/19 09:19:23;;;;;;;56.40;20.23;;;;;;;2.44;100.00;101235.13;6296020;28;20052;-72
2023/12/19 09:22:27;;;;;;;73.95;20.38;;;;;;;2.42;100.00;101236.84;6297010;28;20420;-73
2023/12/19 09:25:29;;;;;;;49.30;19.60;;;;;;;2.47;100.00;101235.09;6297175;28;20079;-73
2023/12/19 09:28:30;;;;;;;52.63;19.95;;;;;;;2.56;100.00;101227.28;6295380;28;20135;-73
2023/12/19 09:31:30;;;;;;;47.63;20.63;;;;;;;2.53;100.00;101214.44;6296419;28;20051;-75
2023/12/19 09:34:31;;;;;;;69.38;20.58;;;;;;;2.48;100.00;101207.63;6295333;28;20459;-73
2023/12/19 09:37:32;;;;;;;50.63;18.63;;;;;;;2.38;100.00;101184.50;6296814;28;20072;-75
2023/12/19 09:40:33;;;;;;;54.60;22.58;;;;;;;2.39;100.00;101187.94;6296548;28;20420;-76
2023/12/19 09:43:34;;;;;;;44.58;18.65;;;;;;;2.49;100.00;101197.31;6295228;28;20131;-73
2023/12/19 09:46:36;;;;;;;51.15;20.23;;;;;;;2.41;100.00;101191.38;6296327;28;20058;-76
2023/12/19 09:49:39;;;;;;;58.58;20.40;;;;;;;2.41;100.00;101186.22;6294402;28;20056;-73
2023/12/19 09:52:41;;;;;;;46.22;21.10;;;;;;;2.37;100.00;101172.50;6297114;28;20052;-73
2023/12/19 09:55:44;;;;;;;63.55;20.20;;;;;;;2.38;100.00;101145.00;6295007;28;20393;-73
2023/12/19 09:58:45;;;;;;;51.70;17.70;;;;;;;2.25;100.00;101144.28;6294808;28;20135;-75
2023/12/19 10:01:48;;;;;;;53.08;20.67;;;;;;;2.41;100.00;101135.53;6294848;28;20110;-72
2023/12/19 10:04:50;;;;;;;65.57;20.88;;;;;;;2.40;100.00;101127.81;6296209;28;20041;-72
2023/12/19 10:07:55;;;;;;;57.05;18.70;;;;;;;2.20;100.00;101108.28;6294665;28;20056;-72
2023/12/19 10:10:57;;;;;;;68.05;20.73;;;;;;;2.33;100.00;101103.84;6294826;28;20143;-73
2023/12/19 10:14:17;;;;;;;59.25;20.52;;;;;;;2.38;100.00;101103.78;6294641;28;20554;-72
2023/12/19 10:17:22;;;;;;;62.47;19.98;;;;;;;2.40;100.00;101087.44;6294726;28;20091;-73
2023/12/19 10:20:25;;;;;;;89.25;24.85;;;;;;;2.56;100.00;101077.84;6295702;28;20057;-76
2023/12/19 10:23:26;;;;;;;73.93;22.23;;;;;;;2.41;100.00;101072.88;6295905;28;20127;-76
2023/12/19 10:26:28;;;;;;;65.15;26.25;;;;;;;2.71;100.00;101066.47;6295581;28;20055;-76
2023/12/19 10:29:36;;;;;;;;;;;;;;;2.35;100.00;101048.03;6294920;28;20057;-73
2023/12/19 10:32:37;;;;;;;26.52;13.05;;;;;;;2.40;100.00;101045.38;6295458;28;20376;-76
2023/12/19 10:35:39;;;;;;;47.78;20.45;;;;;;;2.28;100.00;101038.66;6295866;28;20052;-76
2023/12/19 10:38:49;;;;;;;71.40;21.05;;;;;;;2.07;100.00;101024.28;6294506;28;20094;-76
2023/12/19 10:42:03;;;;;;;34.53;15.25;;;;;;;2.05;100.00;101026.03;6294199;28;20045;-72
2023/12/19 10:45:07;;;;;;;71.55;22.90;;;;;;;1.78;100.00;101019.44;6299970;28;20051;-75
2023/12/19 10:48:11;;;;;;;50.72;20.42;;;;;;;1.80;100.00;101028.84;6300902;28;20053;-75
2023/12/19 10:51:21;;;;;;;70.95;22.80;;;;;;;1.97;100.00;101040.69;6299471;28;20096;-76
2023/12/19 10:54:25;;;;;;;43.47;21.83;;;;;;;2.17;100.00;101043.06;6300731;28;20076;-73
2023/12/19 10:57:30;;;;;;;69.72;21.73;;;;;;;2.29;100.00;101045.53;6299102;28;20410;-73
2023/12/19 11:00:33;;;;;;;76.75;20.92;;;;;;;2.00;100.00;101041.53;6299018;28;20121;-72
2023/12/19 11:03:44;;;;;;;62.88;23.92;;;;;;;1.92;100.00;101033.03;6298979;28;20561;-72
2023/12/19 11:06:49;;;;;;;48.83;22.25;;;;;;;1.94;100.00;101041.59;6299049;28;20055;-75
2023/12/19 11:09:59;;;;;;;59.63;22.90;;;;;;;2.13;100.00;101052.53;6298954;28;20055;-73
2023/12/19 11:13:00;;;;;;;57.67;21.05;;;;;;;2.12;100.00;101056.00;6299996;28;20041;-73
2023/12/19 11:16:18;;;;;;;50.58;21.55;;;;;;;2.36;100.00;101059.16;6300025;28;20056;-72
2023/12/19 11:19:30;;;;;;;75.97;24.35;;;;;;;2.36;100.00;101054.03;6299801;28;20569;-73
2023/12/19 11:22:34;;;;;;;52.03;24.88;;;;;;;2.47;100.00;101059.03;6299959;28;20131;-72
2023/12/19 11:25:39;;;;;;;58.25;24.95;;;;;;;2.45;100.00;101058.22;6298334;28;20048;-72
2023/12/19 11:28:40;;;;;;;63.58;19.77;;;;;;;2.37;100.00;101051.44;6298563;28;20103;-73
2023/12/19 11:31:41;;;;;;;56.78;22.05;;;;;;;2.36;100.00;101049.72;6299480;28;20052;-76
2023/12/19 11:34:42;;;;;;;52.83;21.33;;;;;;;2.49;100.00;101045.31;6299451;28;20473;-76
2023/12/19 11:37:44;;;;;;;39.08;17.55;;;;;;;2.37;100.00;101029.97;6299200;28;20057;-76
2023/12/19 11:40:45;;;;;;;47.60;19.55;;;;;;;2.32;99.67;101024.03;6299489;28;20060;-76
2023/12/19 11:43:49;;;;;;;56.85;19.30;;;;;;;2.34;99.34;101017.13;6299279;28;20049;-73
2023/12/19 11:47:14;;;;;;;53.25;18.83;;;;;;;2.25;99.73;101010.38;6298292;28;20070;-76
2023/12/19 11:50:40;;;;;;;53.75;21.63;;;;;;;2.27;100.00;101015.50;6297727;28;20052;-76
2023/12/19 11:53:43;;;;;;;39.50;17.98;;;;;;;2.16;100.00;101008.75;6297413;28;20140;-77
2023/12/19 11:56:56;;;;;;;44.13;18.95;;;;;;;2.10;100.00;101011.41;6298870;28;20584;-76
2023/12/19 12:00:00;;;;;;;67.18;19.70;;;;;;;2.20;100.00;101018.16;6297495;28;20053;-76
2023/12/19 12:03:08;;;;;;;91.47;21.42;;;;;;;2.27;100.00;101006.06;6298850;28;20124;-76
2023/12/19 12:06:12;;;;;;;66.35;20.98;;;;;;;2.22;100.00;101002.66;6298882;28;20055;-76
2023/12/19 12:09:17;;;;;;;57.00;21.73;;;;;;;2.37;99.52;101011.97;6298684;28;20049;-76
2023/12/19 12:12:30;;;;;;;43.35;19.40;;;;;;;2.31;99.19;101001.72;6297405;28;20412;-76
2023/12/19 12:15:31;;;;;;;36.58;18.52;;;;;;;2.33;98.75;100994.84;6297242;28;20041;-76
2023/12/19 12:18:34;;;;;;;63.92;19.90;;;;;;;2.31;98.81;100996.56;6298086;28;20456;-76
2023/12/19 12:21:35;;;;;;;51.40;19.40;;;;;;;2.42;98.94;100994.69;6323187;28;20594;-76
2023/12/19 12:24:38;;;;;;;55.85;18.77;;;;;;;2.37;98.34;100993.94;6323441;28;20052;-76
2023/12/19 12:27:39;;;;;;;54.75;20.00;;;;;;;2.36;98.05;100987.06;6322086;28;20055;-76
2023/12/19 12:30:43;;;;;;;49.72;18.60;;;;;;;2.12;98.49;100986.47;6322009;28;20052;-76
2023/12/19 12:33:46;;;;;;;57.35;20.73;;;;;;;2.25;99.08;100986.34;6322988;28;20087;-76
2023/12/19 12:36:49;;;;;;;46.60;19.00;;;;;;;2.36;99.06;100987.06;6323603;28;20052;-76
2023/12/19 12:40:00;;;;;;;;;;;;;;;2.29;98.01;100975.97;6322404;28;20048;-76
2023/12/19 12:43:37;;;;;;;62.22;18.40;;;;;;;2.27;98.07;100967.41;6322159;28;19920;-76
2023/12/19 12:46:47;;;;;;;65.38;17.10;;;;;;;2.28;97.78;100963.97;6322578;28;20101;-76
2023/12/19 12:50:00;;;;;;;49.42;17.45;;;;;;;2.28;97.60;100956.22;6320558;28;20096;-76
2023/12/19 12:53:01;;;;;;;44.00;17.70;;;;;;;1.95;98.46;100936.91;6322474;28;20142;-76
2023/12/19 12:56:06;;;;;;;38.90;17.88;;;;;;;2.03;99.07;100942.81;6323189;28;20052;-73
2023/12/19 12:59:13;;;;;;;42.03;18.33;;;;;;;2.14;98.75;100933.25;6322314;28;20518;-72
2023/12/19 13:02:14;;;;;;;63.75;18.00;;;;;;;1.87;98.79;100923.25;6322628;28;20143;-73
2023/12/19 13:05:15;;;;;;;99.85;19.23;;;;;;;1.98;99.60;100921.44;6322163;28;20058;-74
2023/12/19 13:08:16;;;;;;;53.45;17.70;;;;;;;2.01;99.04;100923.94;6321923;28;20553;-72
2023/12/19 13:11:19;;;;;;;75.28;20.70;;;;;;;2.08;99.43;100935.03;6322296;28;20484;-73
2023/12/19 13:14:22;;;;;;;42.55;17.52;;;;;;;2.02;100.00;100935.97;6322422;28;20055;-73
2023/12/19 13:17:22;;;;;;;;;;;;;;;2.11;99.89;100938.41;6321510;28;20055;-76
2023/12/19 13:20:23;;;;;;;44.45;16.25;;;;;;;2.04;98.54;100921.34;6321026;28;19920;-76
2023/12/19 13:23:26;;;;;;;36.05;16.45;;;;;;;1.92;99.42;100927.50;6322529;28;20052;-72
2023/12/19 13:26:29;;;;;;;62.33;19.63;;;;;;;2.01;99.26;100924.78;6321940;28;20097;-73
2023/12/19 13:29:30;;;;;;;100.32;22.77;;;;;;;1.96;98.96;100907.72;6322414;28;20081;-73
2023/12/19 13:32:37;;;;;;;64.25;18.95;;;;;;;1.85;99.66;100909.56;6321721;28;20052;-72
2023/12/19 13:35:39;;;;;;;67.38;19.98;;;;;;;1.91;100.00;100912.06;6321792;28;20132;-72
2023/12/19 13:38:41;;;;;;;77.05;19.30;;;;;;;1.89;100.00;100895.78;6320560;28;20047;-72
2023/12/19 13:41:42;;;;;;;53.50;19.58;;;;;;;1.89;100.00;100899.19;6322026;28;20244;-73
2023/12/19 13:44:43;;;;;;;59.83;17.80;;;;;;;1.90;99.81;100888.06;6321629;28;20044;-73
2023/12/19 13:47:44;;;;;;;44.78;18.15;;;;;;;2.01;99.82;100875.03;6320275;28;20651;-76
2023/12/19 13:50:45;;;;;;;43.78;16.90;;;;;;;2.04;99.87;100879.28;6320294;28;20048;-76
2023/12/19 13:53:48;;;;;;;42.13;17.83;;;;;;;2.08;99.52;100875.81;6321381;28;20051;-76